createdAt,value
2022-10-02T00:01:13.383Z,14.36
2022-10-02T00:03:45.950Z,14.12
2022-10-02T00:06:22.105Z,14.18
2022-10-02T00:08:56.085Z,14.07
2022-10-02T00:11:28.855Z,14.16
2022-10-02T00:14:03.724Z,14.04
2022-10-02T00:16:37.511Z,14.01
2022-10-02T00:19:06.895Z,14.03
2022-10-02T00:21:47.335Z,13.91
2022-10-02T00:24:19.535Z,14.09
2022-10-02T00:26:58.246Z,14.21
2022-10-02T00:29:38.395Z,14.26
2022-10-02T00:32:18.885Z,14.30
2022-10-02T00:35:03.112Z,14.11
2022-10-02T00:37:42.822Z,14.36
2022-10-02T00:40:37.210Z,14.24
2022-10-02T00:43:23.329Z,14.21
2022-10-02T00:46:04.402Z,14.24
2022-10-02T00:49:05.510Z,14.34
2022-10-02T00:51:47.716Z,14.15
2022-10-02T00:54:30.712Z,14.32
2022-10-02T00:57:10.531Z,14.44
2022-10-02T00:59:53.419Z,14.29
2022-10-02T01:02:48.982Z,14.27
2022-10-02T01:05:18.428Z,14.44
2022-10-02T01:07:51.606Z,14.28
2022-10-02T01:10:22.440Z,14.09
2022-10-02T01:12:51.819Z,14.21
2022-10-02T01:15:22.833Z,14.30
2022-10-02T01:17:54.777Z,14.36
2022-10-02T01:20:28.226Z,14.31
2022-10-02T01:23:05.891Z,14.22
2022-10-02T01:25:37.206Z,14.10
2022-10-02T01:28:07.017Z,14.25
2022-10-02T01:30:40.755Z,14.29
2022-10-02T01:33:10.850Z,14.17
2022-10-02T01:35:41.144Z,14.34
2022-10-02T01:38:13.651Z,14.28
2022-10-02T01:40:44.520Z,14.23
2022-10-02T01:43:16.161Z,14.20
2022-10-02T01:45:53.288Z,14.44
2022-10-02T01:48:35.707Z,14.39
2022-10-02T01:51:17.887Z,14.43
2022-10-02T01:53:51.743Z,14.61
2022-10-02T01:56:32.330Z,14.55
2022-10-02T01:59:12.201Z,14.38
2022-10-02T02:01:48.585Z,14.41
2022-10-02T02:04:25.212Z,14.57
2022-10-02T02:07:00.951Z,14.43
2022-10-02T02:09:39.018Z,14.31
2022-10-02T02:12:16.305Z,14.53
2022-10-02T02:14:53.438Z,14.51
2022-10-02T02:17:28.035Z,14.51
2022-10-02T02:20:03.462Z,14.59
2022-10-02T02:22:37.163Z,14.62
2022-10-02T02:25:12.300Z,14.57
2022-10-02T02:27:47.410Z,14.61
2022-10-02T02:35:34.382Z,14.55
2022-10-02T02:38:07.426Z,14.41
2022-10-02T02:40:40.702Z,14.49
2022-10-02T02:43:18.228Z,14.59
2022-10-02T02:45:52.975Z,14.51
2022-10-02T02:48:27.111Z,14.59
2022-10-02T02:51:00.850Z,14.54
2022-10-02T02:53:36.437Z,14.45
2022-10-02T02:56:09.953Z,14.20
2022-10-02T02:58:46.726Z,14.24
2022-10-02T03:01:16.660Z,14.15
2022-10-02T03:03:46.691Z,14.18
2022-10-02T03:06:31.764Z,14.33
2022-10-02T03:09:03.224Z,14.38
2022-10-02T03:11:47.264Z,14.33
2022-10-02T03:14:47.790Z,14.47
2022-10-02T03:17:25.894Z,14.53
2022-10-02T03:20:04.463Z,14.63
2022-10-02T03:22:47.750Z,14.35
2022-10-02T03:25:26.224Z,14.27
2022-10-02T03:28:03.629Z,14.26
2022-10-02T03:30:36.736Z,14.13
2022-10-02T03:33:07.262Z,14.28
2022-10-02T03:35:36.954Z,14.27
2022-10-02T03:38:08.314Z,14.08
2022-10-02T03:40:37.846Z,13.92
2022-10-02T03:43:07.741Z,13.91
2022-10-02T03:45:51.047Z,13.94
2022-10-02T03:48:21.461Z,13.86
2022-10-02T03:50:51.926Z,13.55
2022-10-02T03:53:23.524Z,13.75
2022-10-02T03:55:59.210Z,13.73
2022-10-02T03:58:28.430Z,13.47
2022-10-02T04:01:04.390Z,13.66
2022-10-02T04:03:37.697Z,13.57
2022-10-02T04:06:13.232Z,13.53
2022-10-02T04:08:48.630Z,13.47
2022-10-02T04:11:24.810Z,13.49
2022-10-02T04:14:01.019Z,13.59
2022-10-02T04:16:36.913Z,13.33
2022-10-02T04:19:14.797Z,13.44
2022-10-02T04:21:48.422Z,13.59
2022-10-02T04:24:23.714Z,13.50
2022-10-02T04:27:03.190Z,13.70
2022-10-02T04:29:38.786Z,13.52
2022-10-02T04:32:13.323Z,13.48
2022-10-02T04:34:42.933Z,13.50
2022-10-02T04:37:42.406Z,13.48
2022-10-02T04:40:31.406Z,13.71
2022-10-02T04:43:16.233Z,13.74
2022-10-02T04:46:05.308Z,13.58
2022-10-02T04:49:10.383Z,13.60
2022-10-02T04:51:56.953Z,13.45
2022-10-02T04:54:51.997Z,13.57
2022-10-02T04:57:44.786Z,13.52
2022-10-02T05:00:16.653Z,13.69
2022-10-02T05:03:03.642Z,13.40
2022-10-02T05:05:54.674Z,13.51
2022-10-02T05:08:48.003Z,13.67
2022-10-02T05:11:37.096Z,13.55
2022-10-02T05:14:22.887Z,13.77
2022-10-02T05:16:59.385Z,13.57
2022-10-02T05:19:45.968Z,13.69
2022-10-02T05:22:48.130Z,13.52
2022-10-02T05:25:38.330Z,13.55
2022-10-02T05:28:22.845Z,13.63
2022-10-02T05:30:56.575Z,13.58
2022-10-02T05:33:45.983Z,13.54
2022-10-02T05:36:40.042Z,13.59
2022-10-02T05:39:15.578Z,13.82
2022-10-02T05:41:49.493Z,13.70
2022-10-02T05:44:23.095Z,13.84
2022-10-02T05:46:58.646Z,13.84
2022-10-02T05:49:34.662Z,14.04
2022-10-02T05:52:08.918Z,14.02
2022-10-02T05:54:49.479Z,13.99
2022-10-02T05:57:27.367Z,14.00
2022-10-02T06:00:09.627Z,13.98
2022-10-02T06:02:48.909Z,14.02
2022-10-02T06:05:23.332Z,14.14
2022-10-02T06:07:57.773Z,14.29
2022-10-02T06:10:34.506Z,14.06
2022-10-02T06:13:10.094Z,13.92
2022-10-02T06:15:41.590Z,14.20
2022-10-02T06:18:16.049Z,14.13
2022-10-02T06:20:52.154Z,14.19
2022-10-02T06:23:26.700Z,14.18
2022-10-02T06:26:01.028Z,14.40
2022-10-02T06:28:37.234Z,14.52
2022-10-02T06:31:11.897Z,14.34
2022-10-02T06:33:41.568Z,14.59
2022-10-02T06:36:33.916Z,14.71
2022-10-02T06:39:30.499Z,14.55
2022-10-02T06:42:05.203Z,14.81
2022-10-02T06:44:42.878Z,15.16
2022-10-02T06:47:25.565Z,15.23
2022-10-02T06:50:19.326Z,15.35
2022-10-02T06:52:59.351Z,15.25
2022-10-02T06:55:45.760Z,15.37
2022-10-02T06:58:32.789Z,15.51
2022-10-02T07:01:10.973Z,15.36
2022-10-02T07:04:19.106Z,15.92
2022-10-02T07:07:06.130Z,15.55
2022-10-02T07:10:00.279Z,15.58
2022-10-02T07:12:48.918Z,15.42
2022-10-02T07:15:49.033Z,15.63
2022-10-02T07:18:27.615Z,15.54
2022-10-02T07:21:06.010Z,15.57
2022-10-02T07:23:51.978Z,15.61
2022-10-02T07:26:48.890Z,15.72
2022-10-02T07:29:33.509Z,15.59
2022-10-02T07:32:27.958Z,15.41
2022-10-02T07:35:08.289Z,15.71
2022-10-02T07:37:45.448Z,15.98
2022-10-02T07:40:30.098Z,15.95
2022-10-02T07:43:30.650Z,16.03
2022-10-02T07:46:10.610Z,16.29
2022-10-02T07:49:05.743Z,15.77
2022-10-02T07:51:48.882Z,15.97
2022-10-02T07:54:47.986Z,16.03
2022-10-02T07:57:28.893Z,16.05
2022-10-02T08:00:04.694Z,16.48
2022-10-02T08:02:48.626Z,16.70
2022-10-02T08:05:23.437Z,16.92
2022-10-02T08:07:58.593Z,16.83
2022-10-02T08:10:29.597Z,16.82
2022-10-02T08:13:07.502Z,16.72
2022-10-02T08:15:38.871Z,16.29
2022-10-02T08:18:35.409Z,16.48
2022-10-02T08:21:13.155Z,17.03
2022-10-02T08:23:48.476Z,17.00
2022-10-02T08:26:23.040Z,16.76
2022-10-02T08:29:01.299Z,17.09
2022-10-02T08:31:30.971Z,16.77
2022-10-02T08:34:00.565Z,17.28
2022-10-02T08:37:05.305Z,17.57
2022-10-02T08:39:53.385Z,17.91
2022-10-02T08:43:13.419Z,17.32
2022-10-02T08:46:27.327Z,17.27
2022-10-02T08:49:33.808Z,16.56
2022-10-02T08:52:29.992Z,16.52
2022-10-02T08:55:37.713Z,16.66
2022-10-02T08:58:44.148Z,16.82
2022-10-02T09:01:49.203Z,16.81
2022-10-02T09:04:58.834Z,17.41
2022-10-02T09:08:10.013Z,17.22
2022-10-02T09:11:19.412Z,17.41
2022-10-02T09:14:24.473Z,17.25
2022-10-02T09:17:14.995Z,17.70
2022-10-02T09:19:55.961Z,18.17
2022-10-02T09:23:07.619Z,18.48
2022-10-02T09:25:39.004Z,18.98
2022-10-02T09:28:56.131Z,18.76
2022-10-02T09:31:57.133Z,18.23
2022-10-02T09:35:09.071Z,17.30
2022-10-02T09:38:21.638Z,18.13
2022-10-02T09:41:30.286Z,18.07
2022-10-02T09:44:36.073Z,17.89
2022-10-02T09:47:38.751Z,18.26
2022-10-02T09:50:35.315Z,17.62
2022-10-02T09:53:51.205Z,17.64
2022-10-02T09:57:00.470Z,17.91
2022-10-02T09:59:52.361Z,17.34
2022-10-02T10:02:48.917Z,18.16
2022-10-02T10:05:53.555Z,18.75
2022-10-02T10:08:55.072Z,18.86
2022-10-02T10:11:44.970Z,18.34
2022-10-02T10:14:51.100Z,18.30
2022-10-02T10:18:05.467Z,17.98
2022-10-02T10:21:04.879Z,17.69
2022-10-02T10:23:57.791Z,17.58
2022-10-02T10:26:57.241Z,17.12
2022-10-02T10:30:13.192Z,17.10
2022-10-02T10:33:25.672Z,16.88
2022-10-02T10:36:51.258Z,16.69
2022-10-02T10:39:49.261Z,16.49
2022-10-02T10:43:03.374Z,16.80
2022-10-02T10:45:51.692Z,17.19
2022-10-02T10:49:03.040Z,16.44
2022-10-02T10:51:35.317Z,16.57
2022-10-02T10:54:40.811Z,16.25
2022-10-02T10:57:22.283Z,16.08
2022-10-02T11:00:20.779Z,16.04
2022-10-02T11:02:59.316Z,15.41
2022-10-02T11:05:56.878Z,15.17
2022-10-02T11:08:54.338Z,15.21
2022-10-02T11:11:28.078Z,15.23
2022-10-02T11:14:12.842Z,15.03
2022-10-02T11:17:11.164Z,14.82
2022-10-02T11:19:56.515Z,14.65
2022-10-02T11:22:46.032Z,14.49
2022-10-02T11:25:32.079Z,14.57
2022-10-02T11:28:29.802Z,14.32
2022-10-02T11:31:17.727Z,14.31
2022-10-02T11:34:16.809Z,14.45
2022-10-02T11:36:56.472Z,14.27
2022-10-02T11:39:58.728Z,14.47
2022-10-02T11:43:11.388Z,14.73
2022-10-02T11:46:00.199Z,15.02
2022-10-02T11:48:51.198Z,15.19
2022-10-02T11:51:52.430Z,15.72
2022-10-02T11:54:56.909Z,15.76
2022-10-02T11:57:45.771Z,15.82
2022-10-02T12:00:40.039Z,16.46
2022-10-02T12:03:21.108Z,16.71
2022-10-02T12:05:59.167Z,16.33
2022-10-02T12:08:46.867Z,15.94
2022-10-02T12:11:25.891Z,16.02
2022-10-02T12:14:15.701Z,16.42
2022-10-02T12:16:57.905Z,16.74
2022-10-02T12:20:02.734Z,17.45
2022-10-02T12:22:57.708Z,17.41
2022-10-02T12:25:54.135Z,17.78
2022-10-02T12:28:29.646Z,21.71
2022-10-02T12:31:07.078Z,25.16
2022-10-02T12:33:51.747Z,26.95
2022-10-02T12:36:34.768Z,29.63
2022-10-02T12:39:22.116Z,28.71
2022-10-02T12:42:07.811Z,29.78
2022-10-02T12:45:21.586Z,28.03
2022-10-02T12:48:08.339Z,27.74
2022-10-02T12:51:07.654Z,25.20
2022-10-02T12:54:07.684Z,28.64
2022-10-02T12:57:39.495Z,29.28
2022-10-02T13:00:15.568Z,29.22
2022-10-02T13:03:20.604Z,26.96
2022-10-02T13:06:04.392Z,27.23
2022-10-02T13:08:50.430Z,27.61
2022-10-02T13:11:32.994Z,29.30
2022-10-02T13:14:28.558Z,30.37
2022-10-02T13:17:18.170Z,29.46
2022-10-02T13:20:02.115Z,29.17
2022-10-02T13:22:42.181Z,30.12
2022-10-02T13:25:38.919Z,28.70
2022-10-02T13:28:29.752Z,27.82
2022-10-02T13:31:11.456Z,26.89
2022-10-02T13:34:03.399Z,24.17
2022-10-02T13:36:45.597Z,25.13
2022-10-02T13:39:39.859Z,26.81
2022-10-02T13:42:23.532Z,25.55
2022-10-02T13:45:01.538Z,22.38
2022-10-02T13:47:44.253Z,20.55
2022-10-02T13:50:23.768Z,18.78
2022-10-02T13:53:23.882Z,17.79
2022-10-02T13:56:02.982Z,17.54
2022-10-02T13:59:00.547Z,17.15
2022-10-02T14:01:43.173Z,17.49
2022-10-02T14:04:48.474Z,17.74
2022-10-02T14:07:33.338Z,17.41
2022-10-02T14:10:11.933Z,17.43
2022-10-02T14:12:57.923Z,16.29
2022-10-02T14:15:41.776Z,15.91
2022-10-02T14:18:35.845Z,16.03
2022-10-02T14:21:13.260Z,16.47
2022-10-02T14:24:05.949Z,16.45
2022-10-02T14:26:50.890Z,15.97
2022-10-02T14:29:36.534Z,16.30
2022-10-02T14:32:31.517Z,17.43
2022-10-02T14:35:24.217Z,18.95
2022-10-02T14:38:26.882Z,18.23
2022-10-02T14:41:00.873Z,17.39
2022-10-02T14:43:49.220Z,17.11
2022-10-02T14:46:41.798Z,16.16
2022-10-02T14:49:42.401Z,15.69
2022-10-02T14:52:37.810Z,15.39
2022-10-02T14:55:29.887Z,15.13
2022-10-02T14:58:15.816Z,14.95
2022-10-02T15:01:02.617Z,14.78
2022-10-02T15:03:54.734Z,15.11
2022-10-02T15:06:37.935Z,14.92
2022-10-02T15:09:15.783Z,15.69
2022-10-02T15:12:02.206Z,16.52
2022-10-02T15:14:42.474Z,17.73
2022-10-02T15:17:35.017Z,17.13
2022-10-02T15:20:20.731Z,16.27
2022-10-02T15:22:58.214Z,16.04
2022-10-02T15:25:48.081Z,16.02
2022-10-02T15:28:36.882Z,15.67
2022-10-02T15:31:19.921Z,15.12
2022-10-02T15:34:06.387Z,15.09
2022-10-02T15:36:55.302Z,14.73
2022-10-02T15:39:45.846Z,14.28
2022-10-02T15:42:20.975Z,14.20
2022-10-02T15:45:10.222Z,14.30
2022-10-02T15:48:01.025Z,14.25
2022-10-02T15:50:45.446Z,14.23
2022-10-02T15:53:39.767Z,14.04
2022-10-02T15:56:30.507Z,14.23
2022-10-02T15:59:19.021Z,13.91
2022-10-02T16:02:03.667Z,13.93
2022-10-02T16:04:41.224Z,13.73
2022-10-02T16:07:36.456Z,13.90
2022-10-02T16:10:26.128Z,13.92
2022-10-02T16:13:12.859Z,13.64
2022-10-02T16:15:53.283Z,13.49
2022-10-02T16:18:46.209Z,13.52
2022-10-02T16:21:45.466Z,13.52
2022-10-02T16:24:43.698Z,13.44
2022-10-02T16:27:30.362Z,13.57
2022-10-02T16:30:11.849Z,13.40
2022-10-02T16:33:11.334Z,13.44
2022-10-02T16:36:04.709Z,13.31
2022-10-02T16:38:50.531Z,13.16
2022-10-02T16:41:37.033Z,13.27
2022-10-02T16:44:31.284Z,13.20
2022-10-02T16:47:10.274Z,13.26
2022-10-02T16:49:51.019Z,13.07
2022-10-02T16:52:27.631Z,13.14
2022-10-02T16:55:04.535Z,12.92
2022-10-02T16:57:55.916Z,13.07
2022-10-02T17:00:29.966Z,13.26
2022-10-02T17:03:10.039Z,13.23
2022-10-02T17:05:49.795Z,13.30
2022-10-02T17:08:29.677Z,13.55
2022-10-02T17:11:23.696Z,13.57
2022-10-02T17:14:10.989Z,13.61
2022-10-02T17:16:48.955Z,13.58
2022-10-02T17:19:26.509Z,13.82
2022-10-02T17:22:03.443Z,13.77
2022-10-02T17:24:43.027Z,13.83
2022-10-02T17:27:19.492Z,13.91
2022-10-02T17:29:55.801Z,13.87
2022-10-02T17:32:50.392Z,13.61
2022-10-02T17:35:35.200Z,13.64
2022-10-02T17:38:49.974Z,13.77
2022-10-02T17:41:35.051Z,13.61
2022-10-02T17:44:17.958Z,13.63
2022-10-02T17:47:06.866Z,13.64
2022-10-02T17:49:53.794Z,13.58
2022-10-02T17:52:50.376Z,13.73
2022-10-02T17:55:46.316Z,13.72
2022-10-02T17:58:24.990Z,13.75
2022-10-02T18:01:07.975Z,13.74
2022-10-02T18:03:51.482Z,13.52
2022-10-02T18:06:32.450Z,13.80
2022-10-02T18:09:30.593Z,13.72
2022-10-02T18:12:31.269Z,13.69
2022-10-02T18:15:39.760Z,13.66
2022-10-02T18:18:28.747Z,13.54
2022-10-02T18:21:10.960Z,13.49
2022-10-02T18:24:16.121Z,13.52
2022-10-02T18:27:01.597Z,13.55
2022-10-02T18:29:59.104Z,13.39
2022-10-02T18:32:43.082Z,13.28
2022-10-02T18:35:36.540Z,13.40
2022-10-02T18:38:21.578Z,13.41
2022-10-02T18:41:21.168Z,13.39
2022-10-02T18:44:10.558Z,13.30
2022-10-02T18:46:53.505Z,13.36
2022-10-02T18:49:59.170Z,13.35
2022-10-02T18:52:54.274Z,13.43
2022-10-02T18:55:45.142Z,13.47
2022-10-02T18:58:28.383Z,13.46
2022-10-02T19:01:26.906Z,13.30
2022-10-02T19:04:21.852Z,12.93
2022-10-02T19:06:56.164Z,13.01
2022-10-02T19:09:28.063Z,12.86
2022-10-02T19:12:01.467Z,12.84
2022-10-02T19:14:36.915Z,12.69
2022-10-02T19:17:11.136Z,12.56
2022-10-02T19:19:42.167Z,12.85
2022-10-02T19:22:20.800Z,12.90
2022-10-02T19:24:54.130Z,12.99
2022-10-02T19:27:30.044Z,13.03
2022-10-02T19:30:01.606Z,13.33
2022-10-02T19:32:37.204Z,13.37
2022-10-02T19:35:14.951Z,13.44
2022-10-02T19:37:47.968Z,13.58
2022-10-02T19:40:21.987Z,13.63
2022-10-02T19:42:56.163Z,13.48
2022-10-02T19:45:30.648Z,13.80
2022-10-02T19:48:03.459Z,13.73
2022-10-02T19:50:41.464Z,13.65
2022-10-02T19:53:23.090Z,13.89
2022-10-02T19:55:57.087Z,13.67
2022-10-02T19:58:34.422Z,13.94
2022-10-02T20:01:08.288Z,14.04
2022-10-02T20:03:38.642Z,13.92
2022-10-02T20:06:14.131Z,13.86
2022-10-02T20:08:47.098Z,13.87
2022-10-02T20:11:22.439Z,13.78
2022-10-02T20:13:59.176Z,13.89
2022-10-02T20:16:46.913Z,13.94
2022-10-02T20:19:22.734Z,13.98
2022-10-02T20:21:54.653Z,13.79
2022-10-02T20:24:30.848Z,13.91
2022-10-02T20:27:06.212Z,14.01
2022-10-02T20:29:44.620Z,13.86
2022-10-02T20:32:21.764Z,13.80
2022-10-02T20:34:56.410Z,14.03
2022-10-02T20:37:30.250Z,14.06
2022-10-02T20:40:04.776Z,13.93
2022-10-02T20:42:40.465Z,13.86
2022-10-02T20:45:14.163Z,13.86
2022-10-02T20:48:02.612Z,13.92
2022-10-02T20:50:51.677Z,13.91
2022-10-02T20:54:00.302Z,13.77
2022-10-02T20:57:00.535Z,13.89
2022-10-02T21:00:09.639Z,14.05
2022-10-02T21:03:17.121Z,13.75
2022-10-02T21:06:09.861Z,14.16
2022-10-02T21:09:15.153Z,14.10
2022-10-02T21:12:11.295Z,14.15
2022-10-02T21:15:10.905Z,14.03
2022-10-02T21:18:10.869Z,14.20
2022-10-02T21:21:22.496Z,14.13
2022-10-02T21:24:29.789Z,14.05
2022-10-02T21:27:29.150Z,14.04
2022-10-02T21:30:12.044Z,14.14
2022-10-02T21:33:05.242Z,14.29
2022-10-02T21:35:45.308Z,14.29
2022-10-02T21:38:59.396Z,14.27
2022-10-02T21:42:07.349Z,14.41
2022-10-02T21:45:07.394Z,14.61
2022-10-02T21:48:07.828Z,14.08
2022-10-02T21:51:13.420Z,14.21
2022-10-02T21:54:11.578Z,14.36
2022-10-02T21:57:17.105Z,14.31
2022-10-02T22:00:08.728Z,14.48
2022-10-02T22:03:19.589Z,14.23
2022-10-02T22:06:25.964Z,14.24
2022-10-02T22:09:37.153Z,14.17
2022-10-02T22:12:24.853Z,14.11
2022-10-02T22:15:05.306Z,14.22
2022-10-02T22:17:44.720Z,14.16
2022-10-02T22:20:40.587Z,14.30
2022-10-02T22:23:24.311Z,14.14
2022-10-02T22:26:06.082Z,14.07
2022-10-02T22:28:45.428Z,14.12
2022-10-02T22:32:19.418Z,14.14
2022-10-02T22:34:57.902Z,14.15
2022-10-02T22:37:45.564Z,14.24
2022-10-02T22:40:20.504Z,14.16
2022-10-02T22:42:57.378Z,14.00
2022-10-02T22:45:35.144Z,14.10
2022-10-02T22:48:09.894Z,14.18
2022-10-02T22:50:48.126Z,14.17
2022-10-02T22:53:24.382Z,14.23
2022-10-02T22:55:56.617Z,14.32
2022-10-02T22:58:34.929Z,14.08
2022-10-02T23:01:14.105Z,14.04
2022-10-02T23:03:48.782Z,14.25
2022-10-02T23:06:27.988Z,14.31
2022-10-02T23:09:09.349Z,14.29
2022-10-02T23:11:44.331Z,14.42
2022-10-02T23:14:21.501Z,14.14
2022-10-02T23:16:58.051Z,14.38
2022-10-02T23:19:32.015Z,14.14
2022-10-02T23:22:07.264Z,14.33
2022-10-02T23:24:45.885Z,14.46
2022-10-02T23:27:20.580Z,14.42
2022-10-02T23:29:57.663Z,14.40
2022-10-02T23:32:33.923Z,14.33
2022-10-02T23:35:13.243Z,14.53
2022-10-02T23:37:52.849Z,14.62
2022-10-02T23:40:42.610Z,14.58
2022-10-02T23:43:16.794Z,14.56
2022-10-02T23:45:52.892Z,14.61
2022-10-02T23:48:24.031Z,14.67
2022-10-02T23:51:05.618Z,14.59
2022-10-02T23:54:01.927Z,14.69
2022-10-02T23:56:47.102Z,14.67
2022-10-02T23:59:45.569Z,14.63
